Charlotte, Iowa
Current Conditions -  °F | °C
As of 9:15 AM on Thursday 23 Oct 2014 (Local Time) from KCWI Reporting Station
Scattered Clouds Scattered Clouds  
Wind Chill: 39°   Ceiling: Unl
Heat Index: 45°   Visibility: 1.2mi
Dew Point: 37°   Wind: 10mph
Humidity: 76%   Direction: 160°SSE
Pressure: 30.16"   Gusts: NA
Location:  41.96°N, 90.47°W
Report Text: KCWI 231415Z AUTO 16009KT 1 1/4SM SCT050 07/03 A3016 RMK AO1
Loading
Personal Weather Stations






























Interactive Weather Map
Tropical Storm Tracking
New forecast layout! Learn more

10-Day Weather Forecast

Advertisements
Track Severe Weather on mobile